createdAt,value
2023-04-29T00:00:35.857Z,59.58
2023-04-29T00:04:04.097Z,60.10
2023-04-29T00:07:26.925Z,59.62
2023-04-29T00:10:54.639Z,60.52
2023-04-29T00:14:22.543Z,59.67
2023-04-29T00:17:50.560Z,61.15
2023-04-29T00:21:18.202Z,59.64
2023-04-29T00:24:45.873Z,60.82
2023-04-29T00:28:01.659Z,60.64
2023-04-29T00:31:29.727Z,60.59
2023-04-29T00:34:38.642Z,61.28
2023-04-29T00:38:06.666Z,61.37
2023-04-29T00:41:14.615Z,62.95
2023-04-29T00:44:42.447Z,63.64
2023-04-29T00:47:40.017Z,64.79
2023-04-29T00:51:03.670Z,63.83
2023-04-29T00:54:34.205Z,64.53
2023-04-29T00:58:01.952Z,65.87
2023-04-29T01:01:25.007Z,66.20
2023-04-29T01:04:34.784Z,66.80
2023-04-29T01:07:59.010Z,68.84
2023-04-29T01:11:26.773Z,71.44
2023-04-29T01:14:54.583Z,73.83
2023-04-29T01:18:22.486Z,75.53
2023-04-29T01:21:50.243Z,75.12
2023-04-29T01:25:18.070Z,73.84
2023-04-29T01:28:48.827Z,75.05
2023-04-29T01:31:59.924Z,80.18
2023-04-29T01:35:28.206Z,80.23
2023-04-29T01:38:38.009Z,80.39
2023-04-29T01:41:46.925Z,80.10
2023-04-29T01:44:54.689Z,79.31
2023-04-29T01:48:22.590Z,76.63
2023-04-29T01:51:46.536Z,79.19
2023-04-29T01:54:54.782Z,79.01
2023-04-29T01:58:23.055Z,80.92
2023-04-29T02:01:50.968Z,80.41
2023-04-29T02:05:00.305Z,82.53
2023-04-29T02:08:28.506Z,78.93
2023-04-29T02:11:56.201Z,79.08
2023-04-29T02:15:08.300Z,80.24
2023-04-29T02:18:36.354Z,82.42
2023-04-29T02:22:04.381Z,80.39
2023-04-29T02:25:32.226Z,78.24
2023-04-29T02:28:41.304Z,80.19
2023-04-29T02:32:04.816Z,81.78
2023-04-29T02:35:28.804Z,83.15
2023-04-29T02:38:56.500Z,88.50
2023-04-29T02:42:24.488Z,87.33
2023-04-29T02:45:48.125Z,86.53
2023-04-29T02:49:04.157Z,89.25
2023-04-29T02:52:31.935Z,93.11
2023-04-29T02:55:59.667Z,94.56
2023-04-29T02:59:27.412Z,93.68
2023-04-29T03:02:55.294Z,91.24
2023-04-29T03:06:22.790Z,91.46
2023-04-29T03:09:50.912Z,90.44
2023-04-29T03:13:01.796Z,93.16
2023-04-29T03:16:29.572Z,93.49
2023-04-29T03:19:57.302Z,94.91
2023-04-29T03:23:25.140Z,91.13
2023-04-29T03:26:53.146Z,92.05
2023-04-29T03:30:21.547Z,91.94
2023-04-29T03:33:49.363Z,93.11
2023-04-29T03:37:17.138Z,94.94
2023-04-29T03:40:48.363Z,92.52
2023-04-29T03:44:16.234Z,88.50
2023-04-29T03:47:43.924Z,87.81
2023-04-29T03:51:11.540Z,88.87
2023-04-29T03:54:45.791Z,90.03
2023-04-29T03:58:13.517Z,89.12
2023-04-29T04:01:41.285Z,88.16
2023-04-29T04:04:30.495Z,87.70
2023-04-29T04:07:58.025Z,89.28
2023-04-29T04:10:35.204Z,89.03
2023-04-29T04:14:17.965Z,88.35
2023-04-29T04:17:06.791Z,89.49
2023-04-29T04:20:34.879Z,89.62
2023-04-29T04:24:02.676Z,89.32
2023-04-29T04:27:30.426Z,88.78
2023-04-29T04:31:04.631Z,89.50
2023-04-29T04:34:32.235Z,89.56
2023-04-29T04:37:59.950Z,88.83
2023-04-29T04:41:27.562Z,88.08
2023-04-29T04:44:55.311Z,88.79
2023-04-29T04:48:23.249Z,86.24
2023-04-29T04:51:51.206Z,86.04
2023-04-29T04:55:00.098Z,87.61
2023-04-29T04:58:27.804Z,86.53
2023-04-29T05:01:55.500Z,86.60
2023-04-29T05:05:23.271Z,85.01
2023-04-29T05:08:51.026Z,83.59
2023-04-29T05:12:00.546Z,84.37
2023-04-29T05:15:28.304Z,84.32
2023-04-29T05:18:56.538Z,84.38
2023-04-29T05:22:19.097Z,83.55
2023-04-29T05:25:43.295Z,83.44
2023-04-29T05:29:10.892Z,83.46
2023-04-29T05:32:38.751Z,83.97
2023-04-29T05:36:06.784Z,85.11
2023-04-29T05:39:16.712Z,84.68
2023-04-29T05:42:38.104Z,84.08
2023-04-29T05:46:06.403Z,83.86
2023-04-29T05:49:15.267Z,82.27
2023-04-29T05:52:43.002Z,80.28
2023-04-29T05:56:10.729Z,79.31
2023-04-29T05:59:38.488Z,78.62
2023-04-29T06:03:06.329Z,78.09
2023-04-29T06:06:14.635Z,78.52
2023-04-29T06:09:42.704Z,77.62
2023-04-29T06:12:31.383Z,77.03
2023-04-29T06:15:59.185Z,76.34
2023-04-29T06:19:26.971Z,75.73
2023-04-29T06:22:54.803Z,75.47
2023-04-29T06:26:22.529Z,74.75
2023-04-29T06:29:50.246Z,72.27
2023-04-29T06:33:17.945Z,71.46
2023-04-29T06:36:45.571Z,70.27
2023-04-29T06:40:12.335Z,69.81
2023-04-29T06:43:47.346Z,68.09
2023-04-29T06:47:17.004Z,68.06
2023-04-29T06:50:53.636Z,66.46
2023-04-29T06:54:21.499Z,65.88
2023-04-29T06:57:49.187Z,66.03
2023-04-29T07:01:17.073Z,64.12
2023-04-29T07:04:44.935Z,63.73
2023-04-29T07:08:12.938Z,63.12
2023-04-29T07:11:40.929Z,62.39
2023-04-29T07:15:08.584Z,61.17
2023-04-29T07:18:36.344Z,58.87
2023-04-29T07:22:04.218Z,59.23
2023-04-29T07:25:32.111Z,59.49
2023-04-29T07:28:59.924Z,57.72
2023-04-29T07:32:27.603Z,56.73
2023-04-29T07:35:55.141Z,56.50
2023-04-29T07:39:03.624Z,57.66
2023-04-29T07:42:31.304Z,56.05
2023-04-29T07:45:59.330Z,56.97
2023-04-29T07:49:26.947Z,56.90
2023-04-29T07:52:54.781Z,54.97
2023-04-29T07:56:23.012Z,54.64
2023-04-29T07:59:50.667Z,54.59
2023-04-29T08:03:21.741Z,53.87
2023-04-29T08:06:49.295Z,54.03
2023-04-29T08:10:16.974Z,54.86
2023-04-29T08:13:45.395Z,53.06
2023-04-29T08:17:13.136Z,54.42
2023-04-29T08:20:21.752Z,54.14
2023-04-29T08:23:49.704Z,54.98
2023-04-29T08:27:17.589Z,53.28
2023-04-29T08:30:45.542Z,53.11
2023-04-29T08:34:13.158Z,53.13
2023-04-29T08:37:40.903Z,51.85
2023-04-29T08:41:08.774Z,53.01
2023-04-29T08:44:36.930Z,51.77
2023-04-29T08:48:04.783Z,50.50
2023-04-29T08:51:32.855Z,49.73
2023-04-29T08:54:41.610Z,50.65
2023-04-29T08:58:09.504Z,49.27
2023-04-29T09:01:37.565Z,49.49
2023-04-29T09:05:05.402Z,50.36
2023-04-29T09:08:33.141Z,46.65
2023-04-29T09:12:01.031Z,47.42
2023-04-29T09:15:28.946Z,47.12
2023-04-29T09:18:56.632Z,45.69
2023-04-29T09:22:05.187Z,43.96
2023-04-29T09:25:33.038Z,44.53
2023-04-29T09:28:41.866Z,43.31
2023-04-29T09:32:09.733Z,43.03
2023-04-29T09:35:37.579Z,40.65
2023-04-29T09:39:05.688Z,40.08
2023-04-29T09:42:33.695Z,40.20
2023-04-29T09:46:01.749Z,40.41
2023-04-29T09:49:29.398Z,39.78
2023-04-29T09:52:57.111Z,39.13
2023-04-29T09:56:24.775Z,40.27
2023-04-29T09:59:33.299Z,39.49
2023-04-29T10:03:01.136Z,38.99
2023-04-29T10:06:28.819Z,38.47
2023-04-29T10:09:56.717Z,38.17
2023-04-29T10:13:24.524Z,38.44
2023-04-29T10:16:52.701Z,37.84
2023-04-29T10:20:20.472Z,38.49
2023-04-29T10:23:48.132Z,37.84
2023-04-29T10:27:16.001Z,37.58
2023-04-29T10:30:45.647Z,36.73
2023-04-29T10:34:01.582Z,37.20
2023-04-29T10:37:29.385Z,37.41
2023-04-29T10:40:57.192Z,38.17
2023-04-29T10:44:18.797Z,37.73
2023-04-29T10:47:46.615Z,37.46
2023-04-29T10:50:54.332Z,37.02
2023-04-29T10:53:59.912Z,37.62
2023-04-29T10:57:28.072Z,36.82
2023-04-29T11:00:25.592Z,37.18
2023-04-29T11:03:53.449Z,36.98
2023-04-29T11:07:21.369Z,36.66
2023-04-29T11:10:30.279Z,37.53
2023-04-29T11:13:20.187Z,38.34
2023-04-29T11:16:28.610Z,38.33
2023-04-29T11:19:37.433Z,38.91
2023-04-29T11:22:36.558Z,38.89
2023-04-29T11:25:48.469Z,38.29
2023-04-29T11:28:38.170Z,38.75
2023-04-29T11:32:05.982Z,39.59
2023-04-29T11:35:02.166Z,39.72
2023-04-29T11:38:30.035Z,39.25
2023-04-29T11:41:57.657Z,38.83
2023-04-29T11:45:25.751Z,39.66
2023-04-29T11:48:49.925Z,39.62
2023-04-29T11:51:58.029Z,38.68
2023-04-29T11:55:07.052Z,39.64
2023-04-29T11:58:34.820Z,39.18
2023-04-29T12:02:03.043Z,38.50
2023-04-29T12:05:30.867Z,39.04
2023-04-29T12:08:20.097Z,38.49
2023-04-29T12:11:47.678Z,38.45
2023-04-29T12:14:59.428Z,38.66
2023-04-29T12:18:08.464Z,37.86
2023-04-29T12:21:36.193Z,38.44
2023-04-29T12:25:04.162Z,37.75
2023-04-29T12:28:28.942Z,37.59
2023-04-29T12:31:56.815Z,36.36
2023-04-29T12:34:46.783Z,35.31
2023-04-29T12:38:14.800Z,35.23
2023-04-29T12:41:42.599Z,34.73
2023-04-29T12:44:52.473Z,34.67
2023-04-29T12:47:41.445Z,34.20
2023-04-29T12:51:09.266Z,33.76
2023-04-29T12:54:17.115Z,34.18
2023-04-29T12:57:44.801Z,34.52
2023-04-29T13:00:57.265Z,34.02
2023-04-29T13:03:47.183Z,34.28
2023-04-29T13:06:58.142Z,32.70
2023-04-29T13:13:07.666Z,32.14
2023-04-29T13:16:23.569Z,31.97
2023-04-29T13:19:48.127Z,33.14
2023-04-29T13:23:03.084Z,33.82
2023-04-29T13:26:31.229Z,34.64
2023-04-29T13:29:37.403Z,36.36
2023-04-29T13:32:53.820Z,35.71
2023-04-29T13:36:14.086Z,36.27
2023-04-29T13:39:19.943Z,35.91
2023-04-29T13:42:27.186Z,35.56
2023-04-29T13:45:55.303Z,35.10
2023-04-29T13:49:31.078Z,34.28
2023-04-29T13:53:14.271Z,32.95
2023-04-29T13:56:40.846Z,32.09
2023-04-29T14:02:26.477Z,32.05
2023-04-29T14:05:34.732Z,31.34
2023-04-29T14:08:42.991Z,31.18
2023-04-29T14:11:51.221Z,30.96
2023-04-29T14:14:28.393Z,30.96
2023-04-29T14:17:27.281Z,29.60
2023-04-29T14:20:35.056Z,29.20
2023-04-29T14:23:26.616Z,28.33
2023-04-29T14:26:27.699Z,28.72
2023-04-29T14:29:16.469Z,28.35
2023-04-29T14:32:22.070Z,27.13
2023-04-29T14:35:12.312Z,27.03
2023-04-29T14:38:19.806Z,27.85
2023-04-29T14:41:36.661Z,27.55
2023-04-29T14:44:26.838Z,27.10
2023-04-29T14:47:15.277Z,27.34
2023-04-29T14:50:11.547Z,27.09
2023-04-29T14:53:04.925Z,26.37
2023-04-29T14:55:36.796Z,26.62
2023-04-29T14:58:45.418Z,26.44
2023-04-29T15:01:25.440Z,27.09
2023-04-29T15:04:33.850Z,27.83
2023-04-29T15:08:01.585Z,28.72
2023-04-29T15:11:22.664Z,29.09
2023-04-29T15:14:30.734Z,29.13
2023-04-29T15:17:35.770Z,27.87
2023-04-29T15:20:48.692Z,27.16
2023-04-29T15:24:01.106Z,26.18
2023-04-29T15:27:28.752Z,26.56
2023-04-29T15:30:33.129Z,26.34
2023-04-29T15:34:00.895Z,25.44
2023-04-29T15:37:28.694Z,26.16
2023-04-29T15:40:56.454Z,27.05
2023-04-29T15:44:06.473Z,25.72
2023-04-29T15:47:22.876Z,26.03
2023-04-29T15:50:07.441Z,25.70
2023-04-29T15:53:16.165Z,26.54
2023-04-29T15:56:31.923Z,25.82
2023-04-29T15:59:25.706Z,26.35
2023-04-29T16:02:18.189Z,26.91
2023-04-29T16:05:26.720Z,27.62
2023-04-29T16:08:35.199Z,29.51
2023-04-29T16:11:39.326Z,30.88
2023-04-29T16:14:51.593Z,32.71
2023-04-29T16:18:19.466Z,33.91
2023-04-29T16:21:07.857Z,35.63
2023-04-29T16:23:56.755Z,36.60
2023-04-29T16:27:12.505Z,38.89
2023-04-29T16:30:17.284Z,39.63
2023-04-29T16:33:23.786Z,39.51
2023-04-29T16:36:23.376Z,40.36
2023-04-29T16:39:33.384Z,43.35
2023-04-29T16:42:12.093Z,44.19
2023-04-29T16:45:23.148Z,44.79
2023-04-29T16:48:17.743Z,44.67
2023-04-29T16:51:34.555Z,45.66
2023-04-29T16:55:02.387Z,47.09
2023-04-29T16:58:19.934Z,48.06
2023-04-29T17:01:36.016Z,48.56
2023-04-29T17:05:03.627Z,47.45
2023-04-29T17:08:12.377Z,48.47
2023-04-29T17:11:35.943Z,46.69
2023-04-29T17:14:26.612Z,47.76
2023-04-29T17:17:51.528Z,49.59
2023-04-29T17:21:14.977Z,49.68
2023-04-29T17:24:23.751Z,49.56
2023-04-29T17:27:51.590Z,49.96
2023-04-29T17:31:19.390Z,51.76
2023-04-29T17:34:29.216Z,52.02
2023-04-29T17:37:56.968Z,53.01
2023-04-29T17:41:06.359Z,51.98
2023-04-29T17:44:30.150Z,54.07
2023-04-29T17:47:58.011Z,55.03
2023-04-29T17:51:25.549Z,52.01
2023-04-29T17:54:53.466Z,51.22
2023-04-29T17:58:21.565Z,54.50
2023-04-29T18:01:49.253Z,54.73
2023-04-29T18:05:16.906Z,53.98
2023-04-29T18:08:44.695Z,54.45
2023-04-29T18:12:12.465Z,55.41
2023-04-29T18:15:40.277Z,57.24
2023-04-29T18:19:08.146Z,57.16
2023-04-29T18:22:36.078Z,57.44
2023-04-29T18:26:03.795Z,57.52
2023-04-29T18:29:31.523Z,57.34
2023-04-29T18:32:59.310Z,57.48
2023-04-29T18:36:27.452Z,57.32
2023-04-29T18:39:55.402Z,57.18
2023-04-29T18:43:08.011Z,57.12
2023-04-29T18:46:36.168Z,57.19
2023-04-29T18:50:03.817Z,57.08
2023-04-29T18:53:31.720Z,58.02
2023-04-29T18:56:40.735Z,57.82
2023-04-29T19:00:08.417Z,59.68
2023-04-29T19:03:36.292Z,59.58
2023-04-29T19:07:06.492Z,59.43
2023-04-29T19:10:34.612Z,60.00
2023-04-29T19:14:02.443Z,59.76
2023-04-29T19:17:30.896Z,60.05
2023-04-29T19:20:54.432Z,59.07
2023-04-29T19:24:03.142Z,60.91
2023-04-29T19:27:31.068Z,60.95
2023-04-29T19:30:31.081Z,61.71
2023-04-29T19:33:40.827Z,61.97
2023-04-29T19:37:08.848Z,62.20
2023-04-29T19:40:36.741Z,62.02
2023-04-29T19:43:45.545Z,62.31
2023-04-29T19:47:13.496Z,62.31
2023-04-29T19:50:28.966Z,62.36
2023-04-29T19:53:42.551Z,63.13
2023-04-29T19:56:59.095Z,63.90
2023-04-29T20:00:26.952Z,63.82
2023-04-29T20:03:54.619Z,64.50
2023-04-29T20:07:22.259Z,64.21
2023-04-29T20:10:50.063Z,64.29
2023-04-29T20:14:18.075Z,64.60
2023-04-29T20:17:46.071Z,65.15
2023-04-29T20:20:54.833Z,65.00
2023-04-29T20:24:22.509Z,64.88
2023-04-29T20:27:50.211Z,64.77
2023-04-29T20:31:18.114Z,65.41
2023-04-29T20:34:45.866Z,66.72
2023-04-29T20:37:54.794Z,66.70
2023-04-29T20:41:22.464Z,66.42
2023-04-29T20:44:50.134Z,67.77
2023-04-29T20:48:17.880Z,68.13
2023-04-29T20:51:41.594Z,68.66
2023-04-29T20:55:09.390Z,69.92
2023-04-29T20:58:37.138Z,70.71
2023-04-29T21:02:04.781Z,71.72
2023-04-29T21:05:32.730Z,71.57
2023-04-29T21:09:00.493Z,71.01
2023-04-29T21:12:05.882Z,73.04
2023-04-29T21:15:33.663Z,72.97
2023-04-29T21:19:01.351Z,74.15
2023-04-29T21:22:29.108Z,74.64
2023-04-29T21:25:56.867Z,75.39
2023-04-29T21:29:24.511Z,76.06
2023-04-29T21:32:33.428Z,75.77
2023-04-29T21:36:01.025Z,75.76
2023-04-29T21:39:28.662Z,76.78
2023-04-29T21:42:56.596Z,76.65
2023-04-29T21:46:05.887Z,77.10
2023-04-29T21:49:32.310Z,76.90
2023-04-29T21:52:48.117Z,77.37
2023-04-29T21:55:56.343Z,77.87
2023-04-29T21:59:13.291Z,78.15
2023-04-29T22:02:22.370Z,78.30
2023-04-29T22:05:31.462Z,78.74
2023-04-29T22:08:47.581Z,79.00
2023-04-29T22:12:15.751Z,79.89
2023-04-29T22:15:43.530Z,81.50
2023-04-29T22:19:11.889Z,81.16
2023-04-29T22:22:27.934Z,83.40
2023-04-29T22:25:36.875Z,82.98
2023-04-29T22:29:04.710Z,84.14
2023-04-29T22:32:32.538Z,83.25
2023-04-29T22:36:00.626Z,83.51
2023-04-29T22:39:28.704Z,83.49
2023-04-29T22:42:38.408Z,83.03
2023-04-29T22:46:06.330Z,84.17
2023-04-29T22:49:34.525Z,85.13
2023-04-29T22:53:02.421Z,84.86
2023-04-29T22:56:11.216Z,84.77
2023-04-29T22:59:38.953Z,84.77
2023-04-29T23:03:06.844Z,84.55
2023-04-29T23:06:34.601Z,85.10
2023-04-29T23:09:43.516Z,84.89
2023-04-29T23:13:11.235Z,85.81
2023-04-29T23:16:39.037Z,84.78
2023-04-29T23:20:06.928Z,85.94
2023-04-29T23:23:34.773Z,87.13
2023-04-29T23:27:02.600Z,85.66
2023-04-29T23:30:30.254Z,85.83
2023-04-29T23:33:58.113Z,85.67
2023-04-29T23:37:25.896Z,85.94
2023-04-29T23:40:53.617Z,86.03
2023-04-29T23:44:21.528Z,87.09
2023-04-29T23:47:49.502Z,87.82
2023-04-29T23:51:17.549Z,88.76
2023-04-29T23:54:45.235Z,89.40
2023-04-29T23:58:13.113Z,90.16
